createdAt,value
2023-01-20T00:01:54.137Z,11.83
2023-01-20T00:04:22.161Z,17.90
2023-01-20T00:06:50.158Z,14.77
2023-01-20T00:09:19.110Z,14.97
2023-01-20T00:11:48.335Z,10.33
2023-01-20T00:14:16.537Z,12.03
2023-01-20T00:16:44.456Z,13.70
2023-01-20T00:19:13.707Z,10.50
2023-01-20T00:21:41.621Z,12.13
2023-01-20T00:24:09.920Z,10.50
2023-01-20T00:26:37.800Z,11.50
2023-01-20T00:29:07.067Z,9.40
2023-01-20T00:31:36.180Z,11.93
2023-01-20T00:34:05.192Z,9.87
2023-01-20T00:36:33.976Z,9.90
2023-01-20T00:39:03.452Z,13.67
2023-01-20T00:41:31.481Z,13.77
2023-01-20T00:43:59.380Z,10.90
2023-01-20T00:46:29.010Z,10.90
2023-01-20T00:48:56.974Z,11.17
2023-01-20T00:51:24.899Z,13.90
2023-01-20T00:53:52.760Z,9.67
2023-01-20T00:56:20.662Z,8.90
2023-01-20T00:58:48.575Z,10.40
2023-01-20T01:01:16.527Z,14.20
2023-01-20T01:03:45.991Z,9.13
2023-01-20T01:06:16.281Z,8.97
2023-01-20T01:08:45.624Z,9.90
2023-01-20T01:11:14.339Z,7.27
2023-01-20T01:13:42.679Z,8.60
2023-01-20T01:16:15.519Z,9.10
2023-01-20T01:18:45.159Z,7.90
2023-01-20T01:21:15.222Z,11.30
2023-01-20T01:23:43.395Z,7.80
2023-01-20T01:26:11.312Z,8.87
2023-01-20T01:28:39.322Z,11.23
2023-01-20T01:31:08.993Z,10.30
2023-01-20T01:33:37.332Z,9.70
2023-01-20T01:36:08.506Z,14.90
2023-01-20T01:38:36.596Z,13.87
2023-01-20T01:41:04.677Z,14.63
2023-01-20T01:43:34.837Z,12.70
2023-01-20T01:46:03.274Z,10.40
2023-01-20T01:48:35.040Z,14.10
2023-01-20T01:51:06.729Z,14.80
2023-01-20T01:53:40.829Z,13.60
2023-01-20T01:56:10.510Z,12.80
2023-01-20T01:58:42.899Z,12.10
2023-01-20T02:01:11.883Z,12.00
2023-01-20T02:03:45.516Z,11.43
2023-01-20T02:06:14.913Z,10.43
2023-01-20T02:08:44.422Z,14.57
2023-01-20T02:11:12.306Z,18.20
2023-01-20T02:13:41.081Z,15.83
2023-01-20T02:16:15.978Z,16.20
2023-01-20T02:18:56.401Z,16.07
2023-01-20T02:22:01.605Z,13.87
2023-01-20T02:25:09.636Z,15.03
2023-01-20T02:27:55.625Z,14.40
2023-01-20T02:30:49.488Z,14.57
2023-01-20T02:33:24.582Z,17.43
2023-01-20T02:35:56.523Z,17.07
2023-01-20T02:38:32.144Z,14.83
2023-01-20T02:41:12.578Z,16.30
2023-01-20T02:43:46.184Z,18.73
2023-01-20T02:46:21.975Z,19.53
2023-01-20T02:48:54.241Z,17.03
2023-01-20T02:51:26.727Z,15.63
2023-01-20T02:53:59.172Z,20.57
2023-01-20T02:56:30.530Z,20.20
2023-01-20T02:59:01.913Z,19.87
2023-01-20T03:01:33.374Z,14.67
2023-01-20T03:04:04.871Z,14.53
2023-01-20T03:06:37.093Z,14.00
2023-01-20T03:09:08.686Z,14.47
2023-01-20T03:11:41.208Z,15.60
2023-01-20T03:14:12.552Z,17.90
2023-01-20T03:16:41.696Z,17.73
2023-01-20T03:19:11.375Z,15.40
2023-01-20T03:21:39.264Z,13.73
2023-01-20T03:24:08.242Z,17.07
2023-01-20T03:26:36.213Z,12.73
2023-01-20T03:29:07.497Z,12.37
2023-01-20T03:31:39.119Z,16.50
2023-01-20T03:34:12.637Z,14.83
2023-01-20T03:36:42.303Z,13.37
2023-01-20T03:39:10.415Z,15.30
2023-01-20T03:41:46.099Z,13.77
2023-01-20T03:44:23.198Z,12.73
2023-01-20T03:46:55.485Z,13.83
2023-01-20T03:49:36.220Z,13.73
2023-01-20T03:52:08.231Z,15.03
2023-01-20T03:54:43.053Z,13.87
2023-01-20T03:57:16.062Z,15.93
2023-01-20T03:59:46.650Z,17.53
2023-01-20T04:02:14.698Z,19.30
2023-01-20T04:04:45.879Z,17.20
2023-01-20T04:07:18.015Z,15.90
2023-01-20T04:09:50.928Z,17.07
2023-01-20T04:12:18.882Z,17.30
2023-01-20T04:14:46.839Z,19.87
2023-01-20T04:17:15.100Z,17.57
2023-01-20T04:19:44.328Z,17.97
2023-01-20T04:22:18.634Z,18.80
2023-01-20T04:24:52.294Z,13.27
2023-01-20T04:27:20.184Z,16.47
2023-01-20T04:29:48.087Z,17.80
2023-01-20T04:32:15.971Z,13.77
2023-01-20T04:34:45.203Z,14.47
2023-01-20T04:37:13.077Z,17.00
2023-01-20T04:39:41.084Z,18.07
2023-01-20T04:42:10.415Z,19.57
2023-01-20T04:44:38.308Z,14.70
2023-01-20T04:47:06.485Z,14.63
2023-01-20T04:49:35.237Z,14.70
2023-01-20T04:52:04.656Z,18.03
2023-01-20T04:54:32.626Z,17.80
2023-01-20T04:57:00.454Z,23.70
2023-01-20T04:59:28.278Z,22.23
2023-01-20T05:01:56.295Z,24.63
2023-01-20T05:04:24.192Z,21.90
2023-01-20T05:06:52.178Z,20.93
2023-01-20T05:09:21.526Z,21.30
2023-01-20T05:11:49.453Z,20.37
2023-01-20T05:14:17.312Z,25.07
2023-01-20T05:16:47.042Z,23.57
2023-01-20T05:19:14.979Z,36.63
2023-01-20T05:21:43.149Z,24.70
2023-01-20T05:24:11.387Z,23.80
2023-01-20T05:26:40.661Z,26.00
2023-01-20T05:29:09.260Z,24.00
2023-01-20T05:31:38.673Z,20.47
2023-01-20T05:34:06.589Z,27.90
2023-01-20T05:36:34.417Z,24.57
2023-01-20T05:39:02.360Z,18.70
2023-01-20T05:41:30.324Z,23.87
2023-01-20T05:43:59.465Z,22.43
2023-01-20T05:46:27.444Z,14.80
2023-01-20T05:48:55.507Z,16.37
2023-01-20T05:51:23.425Z,20.03
2023-01-20T05:53:51.373Z,20.63
2023-01-20T05:56:19.233Z,21.40
2023-01-20T05:58:47.113Z,38.93
2023-01-20T06:01:16.374Z,34.20
2023-01-20T06:03:44.570Z,38.57
2023-01-20T06:06:15.770Z,43.80
2023-01-20T06:08:44.019Z,36.43
2023-01-20T06:11:13.677Z,39.50
2023-01-20T06:13:41.512Z,38.10
2023-01-20T06:16:09.403Z,37.00
2023-01-20T06:18:38.712Z,44.70
2023-01-20T06:21:06.823Z,41.70
2023-01-20T06:23:34.855Z,36.23
2023-01-20T06:26:18.149Z,36.70
2023-01-20T06:28:46.056Z,34.17
2023-01-20T06:31:15.872Z,43.83
2023-01-20T06:33:45.221Z,41.00
2023-01-20T06:36:16.929Z,33.40
2023-01-20T06:38:48.463Z,31.20
2023-01-20T06:41:16.315Z,35.60
2023-01-20T06:43:44.707Z,30.77
2023-01-20T06:46:14.912Z,28.90
2023-01-20T06:48:43.527Z,25.57
2023-01-20T06:51:14.883Z,30.10
2023-01-20T06:53:43.543Z,24.13
2023-01-20T06:56:12.623Z,22.83
2023-01-20T06:58:40.906Z,22.30
2023-01-20T07:01:11.482Z,21.13
2023-01-20T07:03:39.613Z,19.80
2023-01-20T07:06:18.125Z,19.60
2023-01-20T07:08:46.980Z,19.23
2023-01-20T07:11:14.946Z,20.77
2023-01-20T07:13:42.996Z,22.00
2023-01-20T07:16:13.835Z,24.83
2023-01-20T07:18:44.058Z,18.87
2023-01-20T07:21:13.317Z,22.77
2023-01-20T07:23:42.500Z,18.30
2023-01-20T07:26:11.785Z,20.93
2023-01-20T07:28:40.257Z,27.57
2023-01-20T07:31:09.780Z,18.00
2023-01-20T07:33:38.443Z,21.83
2023-01-20T07:36:07.945Z,22.33
2023-01-20T07:38:35.953Z,21.33
2023-01-20T07:41:07.058Z,20.17
2023-01-20T07:43:35.113Z,22.37
2023-01-20T07:46:04.650Z,25.10
2023-01-20T07:48:34.450Z,25.30
2023-01-20T07:51:30.155Z,29.13
2023-01-20T07:53:58.164Z,28.07
2023-01-20T07:56:29.618Z,27.37
2023-01-20T07:58:57.812Z,25.63
2023-01-20T08:01:28.386Z,32.07
2023-01-20T08:03:57.112Z,25.50
2023-01-20T08:06:26.676Z,26.63
2023-01-20T08:08:57.739Z,20.33
2023-01-20T08:11:40.265Z,25.63
2023-01-20T08:14:14.361Z,20.60
2023-01-20T08:16:42.302Z,18.90
2023-01-20T08:19:10.338Z,21.40
2023-01-20T08:21:38.514Z,21.97
2023-01-20T08:24:06.762Z,19.13
2023-01-20T08:26:36.147Z,17.50
2023-01-20T08:29:05.838Z,20.70
2023-01-20T08:31:33.944Z,20.07
2023-01-20T08:34:03.102Z,19.00
2023-01-20T08:36:32.719Z,18.20
2023-01-20T08:39:03.194Z,18.87
2023-01-20T08:41:33.329Z,15.43
2023-01-20T08:44:05.446Z,18.87
2023-01-20T08:46:33.735Z,15.80
2023-01-20T08:49:02.060Z,21.83
2023-01-20T08:51:32.602Z,16.60
2023-01-20T08:54:01.043Z,15.10
2023-01-20T08:56:29.608Z,15.33
2023-01-20T08:58:58.005Z,17.53
2023-01-20T09:01:29.311Z,15.40
2023-01-20T09:04:07.053Z,14.37
2023-01-20T09:06:40.020Z,13.60
2023-01-20T09:09:08.364Z,15.43
2023-01-20T09:11:36.553Z,13.20
2023-01-20T09:14:04.654Z,13.50
2023-01-20T09:16:33.892Z,11.57
2023-01-20T09:19:03.114Z,10.80
2023-01-20T09:21:31.033Z,14.67
2023-01-20T09:23:58.986Z,15.17
2023-01-20T09:26:35.726Z,13.80
2023-01-20T09:29:09.550Z,16.47
2023-01-20T09:31:39.793Z,13.93
2023-01-20T09:34:08.162Z,15.20
2023-01-20T09:36:36.037Z,13.80
2023-01-20T09:39:21.713Z,14.77
2023-01-20T09:42:07.959Z,14.97
2023-01-20T09:44:50.387Z,16.87
2023-01-20T09:47:31.013Z,13.13
2023-01-20T09:50:46.300Z,12.47
2023-01-20T09:53:32.737Z,13.03
2023-01-20T09:56:03.708Z,12.90
2023-01-20T09:58:36.527Z,14.17
2023-01-20T10:01:11.912Z,10.70
2023-01-20T10:03:48.130Z,13.30
2023-01-20T10:06:24.862Z,15.70
2023-01-20T10:09:05.422Z,15.67
2023-01-20T10:11:39.346Z,12.10
2023-01-20T10:14:13.745Z,16.30
2023-01-20T10:16:49.037Z,14.90
2023-01-20T10:19:27.085Z,17.97
2023-01-20T10:22:03.404Z,13.03
2023-01-20T10:24:36.489Z,17.20
2023-01-20T10:27:05.592Z,13.23
2023-01-20T10:29:36.633Z,14.77
2023-01-20T10:32:07.286Z,13.70
2023-01-20T10:34:43.351Z,12.30
2023-01-20T10:37:12.446Z,12.17
2023-01-20T10:39:45.711Z,14.50
2023-01-20T10:42:15.244Z,16.50
2023-01-20T10:44:43.526Z,13.80
2023-01-20T10:47:24.750Z,12.70
2023-01-20T10:50:36.850Z,13.20
2023-01-20T10:53:22.295Z,14.37
2023-01-20T10:56:01.392Z,13.30
2023-01-20T10:58:31.328Z,13.40
2023-01-20T11:01:03.824Z,13.47
2023-01-20T11:03:36.712Z,15.30
2023-01-20T11:06:08.125Z,18.53
2023-01-20T11:08:36.171Z,12.37
2023-01-20T11:11:12.617Z,16.10
2023-01-20T11:13:40.614Z,13.07
2023-01-20T11:16:15.039Z,10.67
2023-01-20T11:18:42.956Z,12.17
2023-01-20T11:21:13.954Z,15.13
2023-01-20T11:23:43.503Z,11.17
2023-01-20T11:26:21.591Z,13.30
2023-01-20T11:28:55.253Z,11.43
2023-01-20T11:31:35.863Z,10.67
2023-01-20T11:34:18.414Z,10.83
2023-01-20T11:36:47.672Z,16.50
2023-01-20T11:39:27.758Z,9.40
2023-01-20T11:42:15.380Z,13.90
2023-01-20T11:44:44.304Z,14.07
2023-01-20T11:47:24.628Z,17.13
2023-01-20T11:50:31.041Z,12.37
2023-01-20T11:53:14.785Z,13.37
2023-01-20T11:55:49.265Z,12.30
2023-01-20T11:58:20.687Z,12.30
2023-01-20T12:00:50.502Z,15.53
2023-01-20T12:03:53.853Z,10.83
2023-01-20T12:06:26.763Z,9.50
2023-01-20T12:09:00.597Z,8.73
2023-01-20T12:11:32.292Z,11.03
2023-01-20T12:14:24.861Z,8.63
2023-01-20T12:17:01.438Z,11.10
2023-01-20T12:19:36.962Z,9.63
2023-01-20T12:22:13.060Z,7.27
2023-01-20T12:25:08.879Z,10.23
2023-01-20T12:27:42.364Z,13.00
2023-01-20T12:30:25.612Z,11.90
2023-01-20T12:32:53.573Z,9.10
2023-01-20T12:35:24.072Z,10.50
2023-01-20T12:37:56.487Z,11.33
2023-01-20T12:40:36.598Z,14.57
2023-01-20T12:43:33.050Z,11.17
2023-01-20T12:46:27.169Z,13.60
2023-01-20T12:49:16.513Z,8.60
2023-01-20T12:51:57.732Z,9.40
2023-01-20T12:54:49.163Z,13.10
2023-01-20T12:57:30.879Z,10.50
2023-01-20T13:00:14.558Z,11.97
2023-01-20T13:03:03.827Z,13.07
2023-01-20T13:05:57.897Z,11.73
2023-01-20T13:08:38.152Z,10.03
2023-01-20T13:11:17.284Z,11.93
2023-01-20T13:14:00.757Z,10.97
2023-01-20T13:16:36.704Z,12.43
2023-01-20T13:19:12.842Z,10.80
2023-01-20T13:21:42.514Z,9.40
2023-01-20T13:24:19.077Z,10.40
2023-01-20T13:26:48.142Z,11.17
2023-01-20T13:29:41.168Z,11.43
2023-01-20T13:32:28.018Z,9.43
2023-01-20T13:34:56.668Z,11.23
2023-01-20T13:37:30.868Z,11.30
2023-01-20T13:40:00.376Z,11.07
2023-01-20T13:42:30.878Z,16.73
2023-01-20T13:45:22.544Z,14.13
2023-01-20T13:48:00.046Z,12.93
2023-01-20T13:50:31.401Z,12.00
2023-01-20T13:53:28.076Z,14.87
2023-01-20T13:56:01.497Z,13.70
2023-01-20T13:58:31.463Z,13.67
2023-01-20T14:01:02.722Z,12.87
2023-01-20T14:03:32.411Z,12.90
2023-01-20T14:06:01.947Z,15.33
2023-01-20T14:08:31.628Z,17.80
2023-01-20T14:11:12.329Z,13.53
2023-01-20T14:13:41.345Z,14.00
2023-01-20T14:16:20.397Z,20.07
2023-01-20T14:18:49.202Z,14.90
2023-01-20T14:21:23.444Z,11.00
2023-01-20T14:23:52.043Z,14.33
2023-01-20T14:26:25.265Z,17.63
2023-01-20T14:28:54.909Z,13.70
2023-01-20T14:31:36.424Z,13.07
2023-01-20T14:34:27.347Z,11.80
2023-01-20T14:36:57.417Z,13.20
2023-01-20T14:39:27.614Z,13.80
2023-01-20T14:41:57.445Z,10.27
2023-01-20T14:44:27.275Z,14.23
2023-01-20T14:46:58.575Z,13.43
2023-01-20T14:49:34.607Z,11.70
2023-01-20T14:52:03.013Z,9.80
2023-01-20T14:54:44.894Z,12.53
2023-01-20T14:57:23.668Z,9.90
2023-01-20T15:00:04.334Z,10.73
2023-01-20T15:02:35.954Z,14.60
2023-01-20T15:05:13.677Z,13.27
2023-01-20T15:07:41.787Z,12.50
2023-01-20T15:10:16.573Z,6.93
2023-01-20T15:12:55.886Z,12.20
2023-01-20T15:15:29.070Z,13.43
2023-01-20T15:18:19.958Z,12.70
2023-01-20T15:20:50.772Z,14.23
2023-01-20T15:23:22.814Z,14.93
2023-01-20T15:25:52.199Z,13.20
2023-01-20T15:28:30.637Z,13.03
2023-01-20T15:30:59.893Z,12.53
2023-01-20T15:33:29.217Z,15.17
2023-01-20T15:35:59.867Z,15.20
2023-01-20T15:38:31.335Z,14.47
2023-01-20T15:41:00.501Z,16.40
2023-01-20T15:43:28.436Z,17.43
2023-01-20T15:45:56.312Z,16.23
2023-01-20T15:48:24.750Z,13.73
2023-01-20T15:50:54.035Z,15.77
2023-01-20T15:53:21.908Z,13.57
2023-01-20T15:55:51.873Z,19.70
2023-01-20T15:58:25.970Z,13.67
2023-01-20T16:00:55.080Z,14.77
2023-01-20T16:03:23.604Z,18.33
2023-01-20T16:05:54.040Z,15.83
2023-01-20T16:08:23.733Z,13.93
2023-01-20T16:10:51.937Z,12.93
2023-01-20T16:13:19.834Z,14.03
2023-01-20T16:15:47.781Z,13.67
2023-01-20T16:18:17.624Z,16.60
2023-01-20T16:20:46.928Z,14.83
2023-01-20T16:23:16.703Z,12.90
2023-01-20T16:25:45.144Z,14.30
2023-01-20T16:28:15.359Z,14.43
2023-01-20T16:30:43.712Z,15.97
2023-01-20T16:33:19.720Z,17.63
2023-01-20T16:35:47.901Z,14.93
2023-01-20T16:38:19.054Z,14.83
2023-01-20T16:40:50.203Z,17.23
2023-01-20T16:43:18.860Z,13.63
2023-01-20T16:45:52.618Z,20.60
2023-01-20T16:48:20.668Z,26.43
2023-01-20T16:50:48.590Z,16.70
2023-01-20T16:53:18.922Z,15.50
2023-01-20T16:55:48.467Z,19.03
2023-01-20T16:58:17.154Z,18.40
2023-01-20T17:00:45.036Z,16.37
2023-01-20T17:03:12.938Z,20.63
2023-01-20T17:05:40.805Z,18.27
2023-01-20T17:08:08.845Z,18.07
2023-01-20T17:10:38.128Z,15.00
2023-01-20T17:13:06.022Z,16.53
2023-01-20T17:15:33.913Z,14.63
2023-01-20T17:18:01.864Z,13.70
2023-01-20T17:20:31.101Z,20.90
2023-01-20T17:22:59.011Z,19.80
2023-01-20T17:25:27.003Z,15.50
2023-01-20T17:27:56.253Z,18.27
2023-01-20T17:30:26.340Z,19.37
2023-01-20T17:32:54.483Z,18.23
2023-01-20T17:35:22.471Z,14.23
2023-01-20T17:37:50.338Z,11.97
2023-01-20T17:40:19.101Z,18.37
2023-01-20T17:42:47.221Z,14.77
2023-01-20T17:45:16.653Z,13.53
2023-01-20T17:47:44.503Z,9.67
2023-01-20T17:50:12.629Z,14.87
2023-01-20T17:52:40.678Z,15.90
2023-01-20T17:55:09.238Z,10.77
2023-01-20T17:57:37.124Z,15.80
2023-01-20T18:00:06.563Z,15.73
2023-01-20T18:02:36.014Z,12.97
2023-01-20T18:05:04.308Z,16.20
2023-01-20T18:07:32.370Z,14.43
2023-01-20T18:10:00.335Z,12.03
2023-01-20T18:12:28.291Z,12.10
2023-01-20T18:14:57.767Z,12.07
2023-01-20T18:17:25.954Z,11.63
2023-01-20T18:19:55.170Z,15.73
2023-01-20T18:22:23.045Z,12.73
2023-01-20T18:24:50.873Z,13.13
2023-01-20T18:27:19.553Z,16.33
2023-01-20T18:29:47.382Z,11.40
2023-01-20T18:32:15.203Z,12.73
2023-01-20T18:34:43.080Z,11.63
2023-01-20T18:37:12.275Z,14.20
2023-01-20T18:39:40.088Z,16.93
2023-01-20T18:42:08.041Z,16.40
2023-01-20T18:44:35.946Z,13.87
2023-01-20T18:47:04.725Z,18.10
2023-01-20T18:49:32.575Z,12.13
2023-01-20T18:52:00.505Z,16.60
2023-01-20T18:54:32.803Z,15.33
2023-01-20T18:57:00.684Z,16.40
2023-01-20T18:59:28.523Z,19.03
2023-01-20T19:01:58.429Z,15.07
2023-01-20T19:04:26.338Z,17.70
2023-01-20T19:06:54.193Z,12.43
2023-01-20T19:09:22.035Z,12.30
2023-01-20T19:11:51.295Z,12.57
2023-01-20T19:14:19.137Z,19.30
2023-01-20T19:16:49.405Z,13.40
2023-01-20T19:19:18.979Z,14.13
2023-01-20T19:21:47.013Z,18.37
2023-01-20T19:24:19.930Z,14.00
2023-01-20T19:26:48.235Z,16.93
2023-01-20T19:29:18.824Z,16.23
2023-01-20T19:31:47.077Z,18.37
2023-01-20T19:34:15.198Z,20.93
2023-01-20T19:36:43.039Z,19.10
2023-01-20T19:39:10.925Z,20.57
2023-01-20T19:41:39.604Z,19.10
2023-01-20T19:44:07.805Z,17.70
2023-01-20T19:46:39.362Z,19.73
2023-01-20T19:49:07.707Z,18.43
2023-01-20T19:51:36.396Z,17.80
2023-01-20T19:54:04.642Z,20.97
2023-01-20T19:56:35.111Z,18.57
2023-01-20T19:59:03.399Z,22.17
2023-01-20T20:01:33.084Z,20.13
2023-01-20T20:04:06.292Z,21.50
2023-01-20T20:06:36.247Z,21.03
2023-01-20T20:09:06.165Z,18.53
2023-01-20T20:11:34.715Z,19.20
2023-01-20T20:14:04.118Z,20.37
2023-01-20T20:16:34.412Z,20.60
2023-01-20T20:19:04.530Z,18.77
2023-01-20T20:21:32.413Z,21.80
2023-01-20T20:24:01.886Z,17.37
2023-01-20T20:26:33.419Z,21.03
2023-01-20T20:29:02.595Z,23.33
2023-01-20T20:31:31.083Z,19.53
2023-01-20T20:33:59.972Z,23.47
2023-01-20T20:36:31.084Z,19.30
2023-01-20T20:38:59.492Z,20.37
2023-01-20T20:41:29.163Z,22.20
2023-01-20T20:43:57.606Z,22.00
2023-01-20T20:46:26.353Z,20.73
2023-01-20T20:48:55.322Z,23.20
2023-01-20T20:51:24.055Z,26.97
2023-01-20T20:53:55.550Z,22.97
2023-01-20T20:56:23.765Z,25.60
2023-01-20T20:59:01.263Z,19.53
2023-01-20T21:01:30.435Z,24.00
2023-01-20T21:04:00.331Z,24.97
2023-01-20T21:06:28.943Z,23.83
2023-01-20T21:08:58.682Z,18.17
2023-01-20T21:11:26.726Z,25.23
2023-01-20T21:13:54.843Z,23.40
2023-01-20T21:16:23.987Z,17.70
2023-01-20T21:18:53.675Z,24.10
2023-01-20T21:21:21.778Z,26.57
2023-01-20T21:23:50.717Z,26.20
2023-01-20T21:26:20.360Z,29.97
2023-01-20T21:28:49.994Z,25.73
2023-01-20T21:31:20.894Z,22.43
2023-01-20T21:33:53.425Z,24.03
2023-01-20T21:36:21.991Z,20.60
2023-01-20T21:38:49.942Z,31.33
2023-01-20T21:41:19.893Z,23.07
2023-01-20T21:44:06.494Z,22.73
2023-01-20T21:46:38.782Z,21.30
2023-01-20T21:49:25.240Z,23.47
2023-01-20T21:52:10.751Z,28.70
2023-01-20T21:54:39.743Z,24.83
2023-01-20T21:57:09.711Z,25.57
2023-01-20T21:59:37.755Z,24.87
2023-01-20T22:02:06.121Z,26.73
2023-01-20T22:04:34.213Z,22.47
2023-01-20T22:07:02.056Z,23.97
2023-01-20T22:09:30.051Z,24.63
2023-01-20T22:11:57.934Z,25.13
2023-01-20T22:14:27.150Z,18.63
2023-01-20T22:16:55.039Z,25.80
2023-01-20T22:19:22.917Z,23.90
2023-01-20T22:21:50.805Z,22.27
2023-01-20T22:24:19.085Z,25.33
2023-01-20T22:26:48.055Z,26.23
2023-01-20T22:29:16.602Z,20.93
2023-01-20T22:31:46.003Z,24.20
2023-01-20T22:34:14.017Z,24.33
2023-01-20T22:36:41.910Z,22.47
2023-01-20T22:39:11.785Z,29.20
2023-01-20T22:41:39.997Z,22.90
2023-01-20T22:44:08.060Z,26.83
2023-01-20T22:46:35.929Z,20.97
2023-01-20T22:49:05.167Z,23.60
2023-01-20T22:51:33.110Z,23.20
2023-01-20T22:54:02.016Z,20.33
2023-01-20T22:56:31.585Z,20.07
2023-01-20T22:59:00.757Z,22.53
2023-01-20T23:01:31.273Z,20.40
2023-01-20T23:04:00.883Z,22.93
2023-01-20T23:06:32.623Z,22.67
2023-01-20T23:09:01.251Z,22.63
2023-01-20T23:11:29.552Z,20.53
2023-01-20T23:13:57.439Z,18.30
2023-01-20T23:16:25.327Z,21.47
2023-01-20T23:18:53.804Z,22.50
2023-01-20T23:21:22.597Z,18.10
2023-01-20T23:23:54.481Z,19.30
2023-01-20T23:26:24.688Z,18.17
2023-01-20T23:28:53.670Z,14.30
2023-01-20T23:31:22.655Z,18.10
2023-01-20T23:33:51.169Z,19.33
2023-01-20T23:36:21.977Z,18.87
2023-01-20T23:38:51.269Z,17.60
2023-01-20T23:41:19.931Z,17.30
2023-01-20T23:43:47.845Z,17.23
2023-01-20T23:46:15.691Z,16.83
2023-01-20T23:48:45.646Z,17.57
2023-01-20T23:51:13.759Z,19.63
2023-01-20T23:53:41.704Z,23.57
2023-01-20T23:56:14.788Z,21.43
2023-01-20T23:58:43.078Z,15.80
